createdAt,value
2018-04-16T00:00:50.236Z,32.55
2018-04-16T00:03:16.879Z,32.36
2018-04-16T00:05:43.508Z,32.33
2018-04-16T00:08:10.151Z,32.36
2018-04-16T00:10:36.791Z,32.31
2018-04-16T00:13:03.436Z,32.30
2018-04-16T00:15:30.100Z,32.30
2018-04-16T00:17:56.734Z,32.25
2018-04-16T00:20:23.419Z,32.14
2018-04-16T00:22:50.049Z,32.15
2018-04-16T00:25:16.685Z,32.15
2018-04-16T00:27:43.318Z,32.06
2018-04-16T00:30:10.009Z,31.97
2018-04-16T00:32:36.648Z,32.00
2018-04-16T00:35:03.286Z,31.91
2018-04-16T00:37:29.900Z,31.92
2018-04-16T00:39:56.535Z,31.92
2018-04-16T00:42:23.183Z,31.96
2018-04-16T00:44:49.853Z,31.88
2018-04-16T00:47:16.494Z,31.87
2018-04-16T00:49:44.478Z,31.83
2018-04-16T00:52:09.777Z,31.86
2018-04-16T00:54:36.411Z,31.72
2018-04-16T00:57:03.050Z,31.74
2018-04-16T00:59:29.739Z,31.79
2018-04-16T01:01:56.350Z,31.75
2018-04-16T01:04:22.986Z,31.72
2018-04-16T01:06:50.745Z,31.70
2018-04-16T01:09:17.391Z,31.76
2018-04-16T01:11:44.071Z,31.72
2018-04-16T01:14:10.714Z,31.67
2018-04-16T01:16:37.323Z,31.67
2018-04-16T01:19:03.995Z,31.65
2018-04-16T01:21:30.636Z,31.58
2018-04-16T01:23:57.348Z,31.51
2018-04-16T01:26:23.989Z,31.53
2018-04-16T01:28:50.634Z,31.51
2018-04-16T01:31:17.241Z,31.39
2018-04-16T01:33:43.923Z,31.40
2018-04-16T01:36:10.557Z,31.43
2018-04-16T01:38:37.229Z,31.36
2018-04-16T01:41:03.962Z,31.38
2018-04-16T01:43:30.604Z,31.30
2018-04-16T01:45:57.275Z,31.30
2018-04-16T01:48:23.907Z,31.25
2018-04-16T01:50:50.522Z,31.21
2018-04-16T01:53:17.156Z,31.10
2018-04-16T01:55:43.842Z,31.04
2018-04-16T01:58:10.523Z,30.92
2018-04-16T02:00:37.233Z,30.91
2018-04-16T02:03:03.874Z,30.88
2018-04-16T02:05:30.520Z,30.88
2018-04-16T02:07:57.299Z,30.75
2018-04-16T02:10:23.941Z,30.69
2018-04-16T02:12:50.555Z,30.74
2018-04-16T02:15:17.218Z,30.68
2018-04-16T02:17:43.898Z,30.61
2018-04-16T02:20:10.547Z,30.59
2018-04-16T02:22:37.149Z,30.53
2018-04-16T02:25:03.797Z,30.55
2018-04-16T02:27:30.467Z,30.54
2018-04-16T02:29:57.080Z,30.50
2018-04-16T02:32:23.757Z,30.44
2018-04-16T02:34:50.412Z,30.48
2018-04-16T02:37:17.080Z,30.40
2018-04-16T02:39:43.766Z,30.32
2018-04-16T02:42:10.370Z,30.27
2018-04-16T02:44:37.008Z,30.29
2018-04-16T02:47:03.655Z,30.24
2018-04-16T02:49:30.322Z,30.25
2018-04-16T02:51:56.975Z,30.15
2018-04-16T02:54:23.631Z,30.13
2018-04-16T02:56:50.308Z,30.08
2018-04-16T02:59:16.923Z,30.07
2018-04-16T03:01:43.572Z,29.96
2018-04-16T03:04:10.289Z,29.89
2018-04-16T03:06:36.892Z,29.81
2018-04-16T03:09:03.525Z,29.69
2018-04-16T03:11:30.208Z,29.61
2018-04-16T03:13:56.931Z,29.18
2018-04-16T03:16:23.575Z,29.25
2018-04-16T03:18:50.216Z,28.93
2018-04-16T03:21:16.856Z,28.68
2018-04-16T03:23:43.588Z,29.06
2018-04-16T03:26:10.190Z,28.73
2018-04-16T03:28:36.824Z,28.49
2018-04-16T03:31:03.504Z,28.56
2018-04-16T03:33:30.110Z,28.63
2018-04-16T03:35:56.761Z,28.45
2018-04-16T03:38:23.425Z,28.38
2018-04-16T03:40:50.040Z,28.34
2018-04-16T03:43:16.677Z,28.26
2018-04-16T03:45:43.321Z,28.22
2018-04-16T03:48:10.048Z,28.30
2018-04-16T03:50:36.657Z,28.22
2018-04-16T03:53:03.303Z,28.21
2018-04-16T03:55:29.978Z,28.16
2018-04-16T03:57:56.584Z,28.12
2018-04-16T04:00:23.268Z,28.16
2018-04-16T04:02:49.948Z,27.82
2018-04-16T04:05:16.665Z,28.33
2018-04-16T04:07:43.274Z,28.42
2018-04-16T04:10:12.892Z,28.43
2018-04-16T04:12:39.581Z,27.94
2018-04-16T04:15:06.330Z,28.10
2018-04-16T04:17:33.005Z,27.79
2018-04-16T04:19:59.685Z,27.88
2018-04-16T04:22:26.324Z,27.91
2018-04-16T04:24:52.992Z,27.69
2018-04-16T04:27:19.671Z,27.90
2018-04-16T04:29:46.317Z,27.85
2018-04-16T04:32:12.956Z,27.62
2018-04-16T04:34:39.639Z,27.79
2018-04-16T04:37:06.276Z,27.66
2018-04-16T04:39:32.956Z,27.65
2018-04-16T04:41:59.606Z,27.36
2018-04-16T04:44:26.279Z,27.46
2018-04-16T04:46:52.887Z,27.44
2018-04-16T04:49:19.566Z,27.32
2018-04-16T04:51:46.216Z,27.18
2018-04-16T04:54:12.857Z,27.10
2018-04-16T04:56:39.497Z,27.17
2018-04-16T04:59:06.231Z,26.43
2018-04-16T05:01:32.867Z,26.05
2018-04-16T05:03:59.501Z,26.06
2018-04-16T05:06:26.171Z,26.57
2018-04-16T05:08:52.858Z,26.54
2018-04-16T05:11:19.522Z,26.38
2018-04-16T05:13:46.124Z,26.38
2018-04-16T05:16:12.794Z,26.29
2018-04-16T05:18:39.441Z,26.38
2018-04-16T05:21:06.124Z,25.96
2018-04-16T05:23:32.808Z,26.02
2018-04-16T05:25:59.423Z,25.60
2018-04-16T05:28:26.105Z,25.62
2018-04-16T05:30:52.828Z,25.74
2018-04-16T05:33:21.581Z,25.59
2018-04-16T05:35:48.251Z,25.68
2018-04-16T05:38:14.919Z,25.43
2018-04-16T05:40:41.542Z,25.44
2018-04-16T05:43:08.249Z,25.33
2018-04-16T05:45:37.012Z,25.26
2018-04-16T05:48:01.608Z,25.03
2018-04-16T05:50:28.287Z,24.84
2018-04-16T05:52:54.886Z,25.11
2018-04-16T05:55:21.611Z,24.91
2018-04-16T05:57:48.223Z,24.97
2018-04-16T06:00:14.866Z,25.09
2018-04-16T06:02:41.524Z,24.95
2018-04-16T06:05:08.276Z,24.86
2018-04-16T06:07:34.958Z,24.87
2018-04-16T06:10:01.599Z,24.85
2018-04-16T06:12:31.077Z,24.65
2018-04-16T06:14:57.905Z,24.45
2018-04-16T06:17:24.610Z,24.62
2018-04-16T06:19:51.223Z,24.63
2018-04-16T06:22:17.867Z,24.53
2018-04-16T06:24:44.508Z,24.51
2018-04-16T06:27:11.255Z,24.47
2018-04-16T06:29:37.867Z,24.28
2018-04-16T06:32:04.538Z,24.40
2018-04-16T06:34:31.688Z,24.29
2018-04-16T06:36:58.390Z,24.02
2018-04-16T06:39:24.987Z,24.07
2018-04-16T06:41:51.661Z,23.87
2018-04-16T06:44:18.422Z,23.79
2018-04-16T06:46:45.096Z,23.92
2018-04-16T06:49:11.744Z,23.76
2018-04-16T06:51:38.443Z,23.71
2018-04-16T06:54:05.051Z,23.63
2018-04-16T06:56:31.690Z,23.72
2018-04-16T06:58:58.368Z,23.73
2018-04-16T07:01:25.015Z,23.66
2018-04-16T07:03:52.522Z,23.54
2018-04-16T07:06:19.127Z,23.31
2018-04-16T07:08:45.844Z,23.24
2018-04-16T07:11:12.495Z,23.49
2018-04-16T07:13:39.217Z,23.25
2018-04-16T07:16:05.858Z,23.30
2018-04-16T07:18:32.524Z,23.12
2018-04-16T07:20:59.691Z,23.25
2018-04-16T07:23:26.342Z,23.29
2018-04-16T07:25:52.998Z,23.20
2018-04-16T07:28:19.642Z,23.18
2018-04-16T07:30:46.368Z,22.70
2018-04-16T07:33:12.963Z,22.33
2018-04-16T07:35:39.692Z,22.67
2018-04-16T07:38:06.294Z,22.69
2018-04-16T07:40:32.927Z,22.71
2018-04-16T07:43:00.623Z,22.69
2018-04-16T07:45:27.259Z,22.62
2018-04-16T07:47:53.939Z,22.21
2018-04-16T07:50:20.670Z,22.53
2018-04-16T07:52:47.281Z,22.60
2018-04-16T07:55:14.038Z,23.02
2018-04-16T07:57:40.694Z,23.33
2018-04-16T08:00:07.390Z,23.04
2018-04-16T08:02:34.101Z,22.79
2018-04-16T08:05:00.742Z,22.59
2018-04-16T08:07:27.429Z,23.14
2018-04-16T08:09:54.079Z,23.14
2018-04-16T08:12:20.802Z,22.98
2018-04-16T08:14:47.483Z,22.99
2018-04-16T08:17:14.100Z,22.91
2018-04-16T08:19:40.799Z,22.66
2018-04-16T08:22:07.546Z,22.49
2018-04-16T08:24:34.208Z,22.78
2018-04-16T08:27:00.869Z,22.35
2018-04-16T08:29:27.497Z,22.15
2018-04-16T08:31:54.125Z,22.25
2018-04-16T08:34:20.888Z,22.33
2018-04-16T08:36:47.480Z,22.39
2018-04-16T08:39:14.131Z,22.28
2018-04-16T08:41:40.777Z,22.49
2018-04-16T08:44:07.487Z,22.27
2018-04-16T08:46:34.100Z,22.11
2018-04-16T08:49:00.780Z,22.18
2018-04-16T08:51:27.416Z,22.34
2018-04-16T08:53:54.011Z,22.28
2018-04-16T08:56:20.752Z,22.08
2018-04-16T08:58:47.371Z,22.09
2018-04-16T09:01:14.051Z,22.08
2018-04-16T09:03:40.683Z,21.96
2018-04-16T09:06:08.227Z,22.10
2018-04-16T09:08:34.917Z,21.83
2018-04-16T09:11:01.548Z,21.82
2018-04-16T09:13:28.169Z,21.81
2018-04-16T09:15:54.847Z,21.93
2018-04-16T09:18:21.483Z,22.02
2018-04-16T09:20:48.186Z,21.88
2018-04-16T09:23:14.856Z,21.87
2018-04-16T09:25:41.510Z,21.62
2018-04-16T09:28:08.185Z,21.38
2018-04-16T09:30:34.868Z,21.68
2018-04-16T09:33:01.628Z,21.89
2018-04-16T09:35:28.245Z,22.58
2018-04-16T09:37:54.858Z,21.94
2018-04-16T09:40:21.509Z,22.54
2018-04-16T09:42:48.241Z,22.63
2018-04-16T09:45:14.850Z,22.75
2018-04-16T09:47:41.553Z,22.87
2018-04-16T09:50:08.628Z,22.76
2018-04-16T09:52:35.273Z,22.07
2018-04-16T09:55:01.885Z,22.28
2018-04-16T09:57:28.619Z,22.36
2018-04-16T09:59:55.377Z,22.84
2018-04-16T10:02:22.142Z,22.44
2018-04-16T10:04:51.848Z,22.44
2018-04-16T10:07:18.480Z,22.26
2018-04-16T10:09:45.149Z,22.13
2018-04-16T10:12:14.609Z,22.47
2018-04-16T10:14:41.288Z,22.66
2018-04-16T10:17:07.931Z,22.08
2018-04-16T10:19:34.571Z,22.48
2018-04-16T10:22:01.239Z,22.89
2018-04-16T10:24:27.884Z,22.35
2018-04-16T10:26:54.658Z,22.22
2018-04-16T10:29:21.392Z,22.88
2018-04-16T10:31:48.042Z,22.77
2018-04-16T10:34:14.691Z,22.62
2018-04-16T10:36:41.340Z,22.63
2018-04-16T10:39:08.041Z,23.00
2018-04-16T10:41:34.647Z,22.41
2018-04-16T10:44:01.327Z,22.26
2018-04-16T10:46:27.991Z,22.34
2018-04-16T10:48:54.756Z,22.92
2018-04-16T10:51:21.407Z,22.67
2018-04-16T10:53:48.104Z,23.04
2018-04-16T10:56:14.962Z,22.87
2018-04-16T10:58:41.605Z,23.06
2018-04-16T11:01:08.241Z,22.94
2018-04-16T11:03:34.957Z,22.90
2018-04-16T11:06:01.564Z,22.74
2018-04-16T11:08:28.287Z,22.99
2018-04-16T11:10:54.895Z,22.66
2018-04-16T11:13:21.595Z,23.00
2018-04-16T11:15:48.239Z,23.12
2018-04-16T11:18:14.867Z,22.80
2018-04-16T11:20:41.566Z,23.19
2018-04-16T11:23:08.374Z,23.09
2018-04-16T11:25:35.042Z,23.18
2018-04-16T11:28:01.721Z,23.27
2018-04-16T11:30:28.343Z,23.21
2018-04-16T11:32:55.028Z,23.16
2018-04-16T11:35:21.713Z,23.06
2018-04-16T11:37:48.454Z,22.96
2018-04-16T11:40:15.069Z,23.13
2018-04-16T11:42:41.792Z,23.13
2018-04-16T11:45:08.403Z,22.87
2018-04-16T11:47:35.143Z,22.94
2018-04-16T11:50:01.748Z,23.05
2018-04-16T11:52:28.440Z,22.92
2018-04-16T11:54:55.042Z,23.01
2018-04-16T11:57:21.708Z,22.99
2018-04-16T11:59:48.372Z,22.64
2018-04-16T12:02:15.073Z,22.74
2018-04-16T12:04:41.699Z,22.82
2018-04-16T12:07:08.391Z,22.63
2018-04-16T12:09:35.025Z,22.81
2018-04-16T12:12:01.732Z,23.03
2018-04-16T12:14:28.407Z,22.72
2018-04-16T12:16:55.066Z,22.89
2018-04-16T12:19:21.725Z,22.50
2018-04-16T12:21:48.367Z,22.73
2018-04-16T12:24:15.036Z,21.85
2018-04-16T12:26:41.801Z,22.23
2018-04-16T12:29:08.514Z,21.95
2018-04-16T12:31:35.117Z,22.21
2018-04-16T12:34:01.824Z,22.65
2018-04-16T12:36:28.466Z,22.55
2018-04-16T12:38:55.056Z,22.33
2018-04-16T12:41:21.859Z,22.09
2018-04-16T12:43:48.501Z,21.53
2018-04-16T12:46:15.102Z,22.31
2018-04-16T12:48:41.787Z,22.16
2018-04-16T12:51:08.424Z,21.55
2018-04-16T12:53:38.026Z,22.01
2018-04-16T12:56:04.689Z,22.23
2018-04-16T12:58:31.717Z,22.56
2018-04-16T13:00:58.331Z,22.29
2018-04-16T13:03:24.970Z,22.31
2018-04-16T13:05:51.786Z,22.30
2018-04-16T13:08:18.495Z,22.08
2018-04-16T13:10:45.133Z,22.25
2018-04-16T13:13:11.825Z,21.83
2018-04-16T13:15:38.505Z,22.00
2018-04-16T13:18:05.178Z,21.94
2018-04-16T13:20:31.868Z,21.95
2018-04-16T13:22:58.531Z,21.98
2018-04-16T13:25:25.172Z,21.68
2018-04-16T13:27:51.801Z,21.37
2018-04-16T13:30:18.454Z,21.42
2018-04-16T13:32:45.173Z,21.71
2018-04-16T13:35:12.769Z,21.87
2018-04-16T13:37:39.437Z,21.76
2018-04-16T13:40:06.108Z,21.34
2018-04-16T13:42:32.791Z,21.12
2018-04-16T13:45:00.490Z,21.46
2018-04-16T13:47:27.094Z,21.55
2018-04-16T13:49:53.797Z,21.54
2018-04-16T13:52:20.440Z,21.34
2018-04-16T13:54:47.100Z,21.76
2018-04-16T13:57:13.863Z,21.56
2018-04-16T13:59:40.460Z,21.47
2018-04-16T14:02:07.194Z,21.62
2018-04-16T14:04:33.813Z,21.64
2018-04-16T14:07:00.448Z,21.48
2018-04-16T14:09:27.100Z,21.59
2018-04-16T14:11:53.783Z,21.53
2018-04-16T14:14:20.421Z,21.72
2018-04-16T14:16:47.101Z,21.99
2018-04-16T14:19:13.825Z,22.01
2018-04-16T14:21:40.461Z,21.73
2018-04-16T14:24:07.117Z,21.99
2018-04-16T14:26:33.772Z,22.15
2018-04-16T14:29:00.530Z,22.24
2018-04-16T14:31:27.173Z,22.20
2018-04-16T14:33:53.813Z,22.24
2018-04-16T14:36:20.477Z,22.26
2018-04-16T14:38:48.161Z,22.36
2018-04-16T14:41:14.800Z,22.32
2018-04-16T14:43:41.438Z,22.46
2018-04-16T14:46:08.073Z,22.56
2018-04-16T14:48:34.744Z,22.46
2018-04-16T14:51:01.410Z,22.52
2018-04-16T14:53:28.086Z,22.67
2018-04-16T14:55:54.772Z,22.58
2018-04-16T14:58:21.469Z,22.69
2018-04-16T15:00:48.107Z,22.75
2018-04-16T15:03:14.723Z,22.58
2018-04-16T15:05:41.422Z,22.72
2018-04-16T15:08:08.090Z,22.82
2018-04-16T15:10:34.718Z,22.85
2018-04-16T15:13:01.444Z,22.88
2018-04-16T15:15:28.041Z,22.95
2018-04-16T15:17:54.679Z,23.07
2018-04-16T15:20:21.416Z,23.22
2018-04-16T15:22:48.144Z,23.15
2018-04-16T15:25:14.772Z,23.35
2018-04-16T15:27:41.456Z,23.56
2018-04-16T15:30:08.077Z,23.55
2018-04-16T15:32:34.747Z,23.63
2018-04-16T15:35:01.434Z,23.71
2018-04-16T15:37:28.073Z,23.67
2018-04-16T15:39:54.744Z,23.81
2018-04-16T15:42:21.351Z,23.88
2018-04-16T15:44:48.020Z,24.00
2018-04-16T15:47:14.636Z,24.14
2018-04-16T15:49:41.439Z,24.18
2018-04-16T15:52:08.069Z,24.28
2018-04-16T15:54:34.679Z,24.37
2018-04-16T15:57:01.323Z,24.43
2018-04-16T15:59:27.968Z,24.49
2018-04-16T16:01:54.684Z,24.57
2018-04-16T16:04:21.404Z,24.44
2018-04-16T16:06:48.035Z,24.70
2018-04-16T16:09:14.722Z,24.94
2018-04-16T16:11:41.314Z,25.10
2018-04-16T16:14:07.950Z,25.18
2018-04-16T16:16:34.623Z,25.25
2018-04-16T16:19:01.266Z,25.30
2018-04-16T16:21:27.905Z,25.43
2018-04-16T16:23:54.522Z,25.48
2018-04-16T16:26:21.208Z,25.60
2018-04-16T16:28:47.849Z,25.65
2018-04-16T16:31:14.472Z,25.76
2018-04-16T16:33:41.187Z,25.90
2018-04-16T16:36:07.811Z,25.99
2018-04-16T16:38:37.261Z,26.04
2018-04-16T16:41:03.906Z,26.12
2018-04-16T16:43:30.600Z,26.30
2018-04-16T16:45:57.275Z,26.43
2018-04-16T16:48:23.896Z,26.50
2018-04-16T16:50:50.537Z,26.57
2018-04-16T16:53:17.247Z,26.71
2018-04-16T16:55:43.850Z,26.78
2018-04-16T16:58:10.483Z,27.00
2018-04-16T17:00:37.161Z,27.09
2018-04-16T17:03:03.806Z,27.19
2018-04-16T17:05:30.448Z,27.39
2018-04-16T17:07:57.152Z,27.51
2018-04-16T17:10:23.722Z,27.63
2018-04-16T17:12:50.389Z,27.68
2018-04-16T17:15:17.030Z,27.68
2018-04-16T17:17:43.693Z,27.78
2018-04-16T17:20:10.334Z,27.84
2018-04-16T17:22:36.937Z,27.92
2018-04-16T17:25:03.614Z,27.95
2018-04-16T17:27:30.212Z,28.03
2018-04-16T17:29:56.895Z,27.96
2018-04-16T17:32:23.573Z,28.11
2018-04-16T17:34:50.249Z,28.16
2018-04-16T17:37:16.854Z,28.32
2018-04-16T17:39:43.524Z,28.34
2018-04-16T17:42:10.132Z,28.38
2018-04-16T17:44:36.915Z,28.43
2018-04-16T17:47:03.522Z,28.51
2018-04-16T17:49:30.165Z,28.48
2018-04-16T17:51:56.851Z,28.63
2018-04-16T17:54:23.535Z,28.58
2018-04-16T17:56:50.168Z,28.62
2018-04-16T17:59:16.874Z,28.64
2018-04-16T18:01:43.481Z,28.73
2018-04-16T18:04:10.360Z,28.80
2018-04-16T18:06:36.998Z,28.82
2018-04-16T18:09:03.671Z,28.88
2018-04-16T18:11:30.314Z,28.92
2018-04-16T18:13:56.941Z,28.87
2018-04-16T18:16:23.615Z,28.97
2018-04-16T18:18:50.237Z,29.01
2018-04-16T18:21:16.908Z,28.98
2018-04-16T18:23:43.513Z,29.04
2018-04-16T18:26:10.189Z,29.19
2018-04-16T18:28:36.874Z,29.20
2018-04-16T18:31:03.505Z,29.24
2018-04-16T18:33:30.264Z,29.27
2018-04-16T18:35:56.869Z,29.17
2018-04-16T18:38:23.533Z,29.34
2018-04-16T18:40:50.137Z,29.36
2018-04-16T18:43:16.806Z,29.31
2018-04-16T18:45:43.480Z,29.26
2018-04-16T18:48:10.148Z,29.48
2018-04-16T18:50:36.775Z,29.46
2018-04-16T18:53:03.387Z,29.50
2018-04-16T18:55:30.052Z,29.46
2018-04-16T18:57:56.693Z,29.50
2018-04-16T19:00:23.403Z,29.57
2018-04-16T19:02:50.047Z,29.61
2018-04-16T19:05:16.673Z,29.71
2018-04-16T19:07:43.398Z,29.63
2018-04-16T19:10:10.013Z,29.79
2018-04-16T19:12:36.693Z,29.79
2018-04-16T19:15:04.743Z,29.77
2018-04-16T19:17:29.981Z,29.78
2018-04-16T19:19:56.650Z,29.94
2018-04-16T19:22:23.326Z,29.89
2018-04-16T19:24:49.959Z,29.98
2018-04-16T19:27:16.637Z,30.03
2018-04-16T19:29:43.324Z,30.14
2018-04-16T19:32:10.011Z,30.13
2018-04-16T19:34:36.637Z,30.16
2018-04-16T19:37:03.373Z,30.30
2018-04-16T19:39:29.980Z,30.20
2018-04-16T19:41:56.661Z,30.13
2018-04-16T19:44:23.295Z,30.15
2018-04-16T19:46:50.000Z,30.36
2018-04-16T19:49:16.649Z,30.29
2018-04-16T19:51:43.321Z,30.32
2018-04-16T19:54:10.004Z,30.41
2018-04-16T19:56:36.611Z,30.34
2018-04-16T19:59:03.240Z,30.47
2018-04-16T20:01:29.920Z,30.34
2018-04-16T20:03:56.522Z,30.38
2018-04-16T20:06:23.240Z,30.38
2018-04-16T20:08:49.843Z,30.46
2018-04-16T20:11:16.517Z,30.37
2018-04-16T20:13:43.197Z,30.36
2018-04-16T20:16:09.905Z,30.39
2018-04-16T20:18:36.504Z,30.52
2018-04-16T20:21:03.181Z,30.58
2018-04-16T20:23:29.823Z,30.55
2018-04-16T20:25:56.515Z,30.70
2018-04-16T20:28:23.154Z,30.74
2018-04-16T20:30:49.780Z,30.77
2018-04-16T20:33:16.485Z,30.84
2018-04-16T20:35:43.151Z,30.92
2018-04-16T20:38:09.870Z,30.90
2018-04-16T20:40:36.479Z,30.98
2018-04-16T20:43:03.116Z,31.08
2018-04-16T20:45:29.723Z,31.10
2018-04-16T20:47:56.422Z,31.11
2018-04-16T20:50:23.019Z,31.12
2018-04-16T20:52:49.647Z,31.21
2018-04-16T20:55:16.323Z,31.19
2018-04-16T20:57:42.947Z,31.30
2018-04-16T21:00:09.596Z,31.33
2018-04-16T21:02:36.195Z,31.38
2018-04-16T21:05:02.873Z,31.45
2018-04-16T21:07:29.498Z,31.48
2018-04-16T21:09:56.169Z,31.54
2018-04-16T21:12:22.805Z,31.58
2018-04-16T21:14:49.524Z,31.66
2018-04-16T21:17:16.131Z,31.70
2018-04-16T21:19:42.803Z,31.72
2018-04-16T21:22:09.489Z,31.80
2018-04-16T21:24:36.204Z,31.81
2018-04-16T21:27:02.805Z,31.93
2018-04-16T21:29:29.515Z,32.02
2018-04-16T21:31:56.187Z,31.94
2018-04-16T21:34:22.780Z,32.01
2018-04-16T21:36:49.455Z,32.07
2018-04-16T21:39:16.125Z,32.14
2018-04-16T21:41:42.798Z,32.11
2018-04-16T21:44:09.401Z,32.21
2018-04-16T21:46:36.094Z,32.22
2018-04-16T21:49:02.812Z,32.29
2018-04-16T21:51:29.446Z,32.30
2018-04-16T21:53:56.160Z,32.28
2018-04-16T21:56:22.762Z,32.35
2018-04-16T21:58:49.398Z,32.47
2018-04-16T22:01:16.078Z,32.47
2018-04-16T22:03:42.695Z,32.49
2018-04-16T22:06:09.354Z,32.49
2018-04-16T22:08:35.990Z,32.53
2018-04-16T22:11:02.686Z,32.63
2018-04-16T22:13:29.356Z,32.64
2018-04-16T22:15:55.994Z,32.66
2018-04-16T22:18:22.789Z,32.70
2018-04-16T22:20:49.660Z,32.66
2018-04-16T22:23:16.328Z,32.68
2018-04-16T22:25:42.933Z,32.77
2018-04-16T22:28:09.572Z,32.73
2018-04-16T22:30:36.249Z,32.88
2018-04-16T22:33:02.922Z,32.83
2018-04-16T22:35:29.559Z,32.92
2018-04-16T22:37:56.155Z,32.92
2018-04-16T22:40:22.834Z,32.91
2018-04-16T22:42:49.483Z,32.90
2018-04-16T22:45:16.182Z,33.02
2018-04-16T22:47:42.813Z,33.12
2018-04-16T22:50:09.464Z,33.06
2018-04-16T22:52:36.079Z,33.02
2018-04-16T22:55:02.736Z,32.99
2018-04-16T22:57:29.339Z,33.17
2018-04-16T22:59:56.019Z,33.10
2018-04-16T23:02:22.764Z,33.09
2018-04-16T23:04:49.460Z,33.12
2018-04-16T23:07:16.110Z,33.17
2018-04-16T23:09:42.821Z,33.22
2018-04-16T23:12:09.473Z,33.25
2018-04-16T23:14:36.136Z,33.23
2018-04-16T23:17:02.768Z,33.25
2018-04-16T23:19:29.369Z,33.31
2018-04-16T23:21:56.078Z,33.27
2018-04-16T23:24:22.748Z,33.29
2018-04-16T23:26:49.358Z,33.32
2018-04-16T23:29:16.031Z,33.44
2018-04-16T23:31:42.734Z,33.37
2018-04-16T23:34:09.411Z,33.44
2018-04-16T23:36:36.011Z,33.42
2018-04-16T23:39:02.703Z,33.55
2018-04-16T23:41:29.370Z,33.46
2018-04-16T23:43:55.964Z,33.51
2018-04-16T23:46:22.613Z,33.47
2018-04-16T23:48:49.248Z,33.53
2018-04-16T23:51:15.934Z,33.53
2018-04-16T23:53:42.573Z,33.60
2018-04-16T23:56:09.232Z,33.66
2018-04-16T23:58:35.848Z,33.70
